Jack Robertson — WDE5993 — position and weather

sailwx.info

Track history (hours):
 
Tides and Currents Weather Stations Pressure Air Temp Water Temp Dewpoint Dewpoint Depression Visibility Wind Speed Wind Dir Waves Ship Positions

Oceanographic research ship Jack Robertson (United States)

Owner: University of Washington Applied Physics Laboratory, Seattle, WA. More information available from US FCC via Universal Licensing System and Coast Guard Vessel Documentation Center.

Last reported at 2018-Feb-22 07:59 UTC. Time now 2018-Feb-23 14:19 UTC.
Position N 47°41' W 122°24'.

; draft 1.7 m.

Type: Other ship. MMSI: 367374350.

Date/timePositionNaut miles runAvg speedWind from/ knotsBaromVisibWave heightAir tempDewpointWater temp
2018-Feb-22 07:59N 47°41' W 122°24'2 3.8
2018-Feb-22 07:30N 47°43' W 122°24'2 4.8
2018-Feb-22 07:00N 47°45' W 122°23'0 0.2
2018-Feb-22 06:30N 47°45' W 122°23'0 0.0
2018-Feb-22 05:58N 47°45' W 122°23'0 0.0
2018-Feb-22 05:28N 47°45' W 122°23'0 0.0
2018-Feb-22 04:58N 47°45' W 122°23'0 0.0
2018-Feb-22 04:28N 47°45' W 122°23'0 0.0
2018-Feb-22 03:58N 47°45' W 122°23'0 0.0
2018-Feb-22 03:28N 47°45' W 122°23'0 0.0
2018-Feb-22 02:58N 47°45' W 122°23'0 0.0
2018-Feb-22 02:28N 47°45' W 122°23'0 0.0
2018-Feb-22 01:58N 47°45' W 122°23'0 0.0
2018-Feb-22 01:28N 47°45' W 122°23'0 0.0
2018-Feb-22 01:00N 47°45' W 122°23'0 0.0
2018-Feb-22 00:30N 47°45' W 122°23'0 0.0
2018-Feb-22 00:00N 47°45' W 122°23'0 0.0
2018-Feb-21 23:30N 47°45' W 122°23'0 0.0
2018-Feb-21 23:00N 47°45' W 122°23'0 0.0
2018-Feb-21 22:30N 47°45' W 122°23'0 0.2
2018-Feb-21 22:00N 47°45' W 122°23'0 0.1
2018-Feb-21 21:31N 47°45' W 122°23'0 0.6
2018-Feb-21 21:00N 47°45' W 122°23'4 7.8
2018-Feb-21 20:30N 47°41' W 122°24'0 0.1
2018-Feb-21 20:00N 47°41' W 122°24'1 2.4
2018-Feb-21 19:30N 47°40' W 122°23'3 5.3
2018-Feb-21 19:00N 47°39' W 122°20'0 0.9
2018-Feb-21 18:30N 47°39' W 122°19'0 0.0
2018-Feb-21 17:58N 47°39' W 122°19'0 0.0
2018-Feb-21 17:28N 47°39' W 122°19'0 0.1
2018-Feb-21 17:00N 47°39' W 122°19'  
Track history (hours):
 
Tides and Currents Weather Stations Pressure Air Temp Water Temp Dewpoint Dewpoint Depression Visibility Wind Speed Wind Dir Waves Ship Positions

Oceanographic research ship Jack Robertson (United States)

Owner: University of Washington Applied Physics Laboratory, Seattle, WA. More information available from US FCC via Universal Licensing System and Coast Guard Vessel Documentation Center.

Last reported at 2018-Feb-22 07:59 UTC. Time now 2018-Feb-23 14:19 UTC.
Position N 47°41' W 122°24'.

; draft 1.7 m.

Type: Other ship. MMSI: 367374350.

Date/timePositionNaut miles runAvg speedWind from/ knotsBaromVisibWave heightAir tempDewpointWater temp
2018-Feb-22 07:59N 47°41' W 122°24'2 3.8
2018-Feb-22 07:30N 47°43' W 122°24'2 4.8
2018-Feb-22 07:00N 47°45' W 122°23'0 0.2
2018-Feb-22 06:30N 47°45' W 122°23'0 0.0
2018-Feb-22 05:58N 47°45' W 122°23'0 0.0
2018-Feb-22 05:28N 47°45' W 122°23'0 0.0
2018-Feb-22 04:58N 47°45' W 122°23'0 0.0
2018-Feb-22 04:28N 47°45' W 122°23'0 0.0
2018-Feb-22 03:58N 47°45' W 122°23'0 0.0
2018-Feb-22 03:28N 47°45' W 122°23'0 0.0
2018-Feb-22 02:58N 47°45' W 122°23'0 0.0
2018-Feb-22 02:28N 47°45' W 122°23'0 0.0
2018-Feb-22 01:58N 47°45' W 122°23'0 0.0
2018-Feb-22 01:28N 47°45' W 122°23'0 0.0
2018-Feb-22 01:00N 47°45' W 122°23'0 0.0
2018-Feb-22 00:30N 47°45' W 122°23'0 0.0
2018-Feb-22 00:00N 47°45' W 122°23'0 0.0
2018-Feb-21 23:30N 47°45' W 122°23'0 0.0
2018-Feb-21 23:00N 47°45' W 122°23'0 0.0
2018-Feb-21 22:30N 47°45' W 122°23'0 0.2
2018-Feb-21 22:00N 47°45' W 122°23'0 0.1
2018-Feb-21 21:31N 47°45' W 122°23'0 0.6
2018-Feb-21 21:00N 47°45' W 122°23'4 7.8
2018-Feb-21 20:30N 47°41' W 122°24'0 0.1
2018-Feb-21 20:00N 47°41' W 122°24'1 2.4
2018-Feb-21 19:30N 47°40' W 122°23'3 5.3
2018-Feb-21 19:00N 47°39' W 122°20'0 0.9
2018-Feb-21 18:30N 47°39' W 122°19'0 0.0
2018-Feb-21 17:58N 47°39' W 122°19'0 0.0
2018-Feb-21 17:28N 47°39' W 122°19'0 0.1
2018-Feb-21 17:00N 47°39' W 122°19'  

Dump ship's entire track history